Raymond, NE (68428)

6:11 PM CST on February 14, 2016 (GMT -0600)
Raymond, NE | | Change Station
CLOSE
Current Station
Personal Weather Station
Location: Raymond, NE
Elevation: 1309 ft
Nearby Weather Stations

Elev 1309 ft 40.98 °N, 96.78 °W | Updated 3 seconds ago

Mostly Cloudy
Mostly Cloudy
38.9 °F
Feels Like 39 °F
N
0.0
Wind Variable Wind from NNW
Gusts 0.0 mph

Today
High -- | Low -- °F
--% Chance of Precip.
Yesterday
High -- | Low -- °F
Precip. -- in
Pressure 29.92 in
Visibility 10.0 miles
Clouds Clear
Windchill 39 °F
Dew Point 33 °F
Humidity 79%
Rainfall 0.00 in
Snow Depth Not available.
7:23 AM 5:59 PM
Waxing Crescent, 46% visible
METAR KLNK 142354Z 00000KT 10SM CLR 04/00 A2988 RMK AO2 SLP130 T00390000 10056 20028 51010
Pressure 29.92 in
Visibility 10.0 miles
Clouds Clear
Windchill 39 °F
Dew Point 33 °F
Humidity 79%
Rainfall 0.00 in
Snow Depth Not available.
7:23 AM 5:59 PM
Waxing Crescent, 46% visible
METAR KLNK 142354Z 00000KT 10SM CLR 04/00 A2988 RMK AO2 SLP130 T00390000 10056 20028 51010

10-Day Weather Forecast

Almanac

Astronomy

Feb. 14, 2016 Rise Set
Actual Time
Civil Twilight
Nautical Twilight
Astronomical Twilight
Moon
Length of Visible Light
Length of Day
Tomorrow will be .
, % of the Moon is Illuminated

Today's Extremes

State Highs State Lows

Community

WunderPhotos

Upload Photos

1,892,938 photos uploaded!

WunderBlog® & News

Nearby

Air Quality

  Air Quality AQ Index Pollutant
Not available.

Snow Depth

Station Depth Elevation

Earthquake Activity

City Distance Mag. Time & Date
Minimum magnitude displayed is 2.5.

Coastal Water Temperatures

Place Temperature

Stations

Nearby Weather Stations

Station Location Temp. Windchill Dew Point Humidity Wind Precip. Elev Updated Type
                   

Watches & Warnings

There are currently no watches in effect.